createdAt,value
2019-01-31T00:02:17.085Z,12.90
2019-01-31T00:04:50.939Z,13.50
2019-01-31T00:07:41.401Z,14.63
2019-01-31T00:10:14.385Z,14.03
2019-01-31T00:13:00.561Z,14.40
2019-01-31T00:15:39.076Z,13.93
2019-01-31T00:18:25.358Z,13.00
2019-01-31T00:20:57.102Z,13.93
2019-01-31T00:23:53.546Z,14.10
2019-01-31T00:26:27.462Z,13.93
2019-01-31T00:29:05.053Z,13.43
2019-01-31T00:31:51.558Z,13.10
2019-01-31T00:34:45.142Z,12.57
2019-01-31T00:37:16.874Z,12.47
2019-01-31T00:39:57.315Z,13.23
2019-01-31T00:42:39.061Z,12.17
2019-01-31T00:45:35.678Z,11.97
2019-01-31T00:48:35.578Z,11.20
2019-01-31T00:51:29.064Z,10.27
2019-01-31T00:54:19.671Z,9.60
2019-01-31T00:57:09.286Z,9.13
2019-01-31T01:00:00.004Z,9.73
2019-01-31T01:02:59.579Z,8.53
2019-01-31T01:05:39.384Z,8.40
2019-01-31T01:08:28.138Z,7.63
2019-01-31T01:11:03.568Z,8.03
2019-01-31T01:13:46.891Z,9.03
2019-01-31T01:16:26.778Z,9.47
2019-01-31T01:19:13.294Z,8.70
2019-01-31T01:22:06.800Z,9.23
2019-01-31T01:24:53.066Z,8.40
2019-01-31T01:27:28.494Z,9.17
2019-01-31T01:30:19.044Z,9.90
2019-01-31T01:33:18.430Z,9.23
2019-01-31T01:35:53.117Z,9.37
2019-01-31T01:38:39.358Z,9.17
2019-01-31T01:41:35.906Z,10.57
2019-01-31T01:44:38.396Z,11.40
2019-01-31T01:47:26.157Z,11.63
2019-01-31T01:49:59.122Z,12.17
2019-01-31T01:52:32.859Z,12.90
2019-01-31T01:55:05.530Z,12.63
2019-01-31T01:58:11.337Z,11.97
2019-01-31T02:01:01.674Z,11.60
2019-01-31T02:03:41.949Z,12.40
2019-01-31T02:06:28.307Z,13.40
2019-01-31T02:09:29.729Z,13.03
2019-01-31T02:12:14.191Z,14.33
2019-01-31T02:15:00.582Z,15.17
2019-01-31T02:17:40.364Z,16.37
2019-01-31T02:20:30.695Z,19.27
2019-01-31T02:23:04.677Z,20.50
2019-01-31T02:25:37.086Z,22.80
2019-01-31T02:28:14.143Z,24.60
2019-01-31T02:31:07.485Z,23.87
2019-01-31T02:33:51.470Z,22.30
2019-01-31T02:36:37.719Z,23.67
2019-01-31T02:39:16.230Z,21.80
2019-01-31T02:42:19.188Z,21.80
2019-01-31T02:44:56.713Z,22.23
2019-01-31T02:47:50.417Z,19.50
2019-01-31T02:50:38.206Z,20.27
2019-01-31T02:53:10.850Z,21.40
2019-01-31T02:55:58.607Z,21.77
2019-01-31T02:58:30.347Z,21.20
2019-01-31T03:01:02.493Z,23.23
2019-01-31T03:03:48.415Z,21.50
2019-01-31T03:06:34.775Z,23.30
2019-01-31T03:09:10.104Z,23.17
2019-01-31T03:11:54.015Z,23.77
2019-01-31T03:14:31.153Z,23.67
2019-01-31T03:17:13.416Z,24.60
2019-01-31T03:20:01.166Z,23.63
2019-01-31T03:22:45.629Z,25.27
2019-01-31T03:25:18.016Z,25.60
2019-01-31T03:28:14.677Z,25.33
2019-01-31T03:31:20.143Z,26.27
2019-01-31T03:34:06.627Z,25.30
2019-01-31T03:36:54.922Z,27.57
2019-01-31T03:40:06.254Z,29.27
2019-01-31T03:42:41.516Z,28.97
2019-01-31T03:45:16.546Z,27.80
2019-01-31T03:48:09.922Z,28.53
2019-01-31T03:50:42.481Z,29.30
2019-01-31T03:53:48.053Z,29.77
2019-01-31T03:56:38.797Z,29.17
2019-01-31T03:59:15.098Z,28.90
2019-01-31T04:01:50.365Z,28.47
2019-01-31T04:04:24.265Z,29.47
2019-01-31T04:06:52.905Z,29.17
2019-01-31T04:09:21.461Z,30.17
2019-01-31T04:11:50.015Z,29.77
2019-01-31T04:14:18.599Z,29.20
2019-01-31T04:16:47.218Z,30.47
2019-01-31T04:19:15.769Z,30.40
2019-01-31T04:21:44.345Z,29.43
2019-01-31T04:24:12.915Z,30.60
2019-01-31T04:26:41.479Z,29.90
2019-01-31T04:29:10.062Z,30.17
2019-01-31T04:31:38.631Z,30.03
2019-01-31T04:34:07.174Z,32.73
2019-01-31T04:36:35.783Z,30.47
2019-01-31T04:39:06.653Z,31.40
2019-01-31T04:41:35.212Z,31.30
2019-01-31T04:44:03.791Z,30.17
2019-01-31T04:46:32.375Z,30.80
2019-01-31T04:49:00.931Z,31.77
2019-01-31T04:51:29.494Z,33.10
2019-01-31T04:53:58.074Z,32.90
2019-01-31T04:56:26.622Z,31.20
2019-01-31T04:58:55.218Z,31.80
2019-01-31T05:01:26.543Z,33.03
2019-01-31T05:03:54.086Z,33.33
2019-01-31T05:06:22.678Z,34.17
2019-01-31T05:08:51.245Z,34.80
2019-01-31T05:11:19.790Z,33.27
2019-01-31T05:13:48.393Z,32.40
2019-01-31T05:16:16.985Z,33.03
2019-01-31T05:18:45.529Z,30.73
2019-01-31T05:21:14.105Z,30.30
2019-01-31T05:23:42.670Z,27.00
2019-01-31T05:26:11.234Z,26.00
2019-01-31T05:28:39.782Z,24.40
2019-01-31T05:31:08.364Z,25.80
2019-01-31T05:33:36.920Z,24.60
2019-01-31T05:36:05.496Z,23.63
2019-01-31T05:38:34.046Z,23.30
2019-01-31T05:41:02.606Z,22.63
2019-01-31T05:43:31.183Z,22.23
2019-01-31T05:45:59.733Z,22.63
2019-01-31T05:48:28.319Z,23.17
2019-01-31T05:50:56.923Z,22.20
2019-01-31T05:53:25.491Z,22.37
2019-01-31T05:55:54.042Z,20.43
2019-01-31T05:58:22.650Z,21.80
2019-01-31T06:00:51.283Z,21.63
2019-01-31T06:03:19.944Z,21.67
2019-01-31T06:05:48.512Z,21.13
2019-01-31T06:08:17.086Z,22.33
2019-01-31T06:10:47.200Z,21.93
2019-01-31T06:13:15.760Z,21.00
2019-01-31T06:15:44.348Z,19.90
2019-01-31T06:18:12.991Z,21.10
2019-01-31T06:20:41.530Z,21.13
2019-01-31T06:23:10.128Z,20.40
2019-01-31T06:25:38.686Z,20.47
2019-01-31T06:28:07.245Z,20.37
2019-01-31T06:30:35.829Z,20.13
2019-01-31T06:33:04.403Z,20.67
2019-01-31T06:35:33.000Z,20.63
2019-01-31T06:38:01.618Z,18.93
2019-01-31T06:40:30.169Z,20.37
2019-01-31T06:42:58.710Z,20.20
2019-01-31T06:45:27.306Z,21.40
2019-01-31T06:47:55.859Z,20.53
2019-01-31T06:50:24.426Z,21.33
2019-01-31T06:52:53.077Z,21.07
2019-01-31T06:55:21.642Z,21.47
2019-01-31T06:57:50.244Z,21.53
2019-01-31T07:00:19.839Z,23.63
2019-01-31T07:02:48.394Z,23.70
2019-01-31T07:05:16.955Z,24.70
2019-01-31T07:07:45.527Z,24.53
2019-01-31T07:10:15.594Z,22.13
2019-01-31T07:12:44.209Z,23.30
2019-01-31T07:15:12.840Z,24.20
2019-01-31T07:17:41.412Z,24.00
2019-01-31T07:20:10.655Z,23.77
2019-01-31T07:22:39.303Z,24.50
2019-01-31T07:25:09.559Z,25.77
2019-01-31T07:27:38.158Z,26.03
2019-01-31T07:30:07.498Z,27.37
2019-01-31T07:32:36.074Z,27.10
2019-01-31T07:35:05.730Z,25.30
2019-01-31T07:37:34.305Z,27.30
2019-01-31T07:40:02.882Z,25.20
2019-01-31T07:42:31.450Z,27.20
2019-01-31T07:45:00.030Z,26.63
2019-01-31T07:47:28.567Z,27.20
2019-01-31T07:49:57.137Z,27.13
2019-01-31T07:52:25.743Z,28.10
2019-01-31T07:54:54.312Z,29.03
2019-01-31T07:57:22.849Z,29.60
2019-01-31T07:59:51.430Z,29.70
2019-01-31T08:02:20.047Z,32.27
2019-01-31T08:04:48.614Z,34.17
2019-01-31T08:07:17.194Z,36.87
2019-01-31T08:09:45.761Z,37.73
2019-01-31T08:12:14.293Z,39.43
2019-01-31T08:14:42.899Z,41.77
2019-01-31T08:17:11.434Z,41.63
2019-01-31T08:19:39.986Z,43.80
2019-01-31T08:22:08.562Z,52.63
2019-01-31T08:24:37.119Z,59.73
2019-01-31T08:27:05.674Z,63.43
2019-01-31T08:29:34.310Z,65.13
2019-01-31T08:32:02.854Z,70.67
2019-01-31T08:34:31.451Z,76.03
2019-01-31T08:37:00.033Z,73.30
2019-01-31T08:39:28.599Z,70.43
2019-01-31T08:42:03.540Z,72.57
2019-01-31T08:44:27.450Z,69.47
2019-01-31T08:46:56.015Z,72.10
2019-01-31T08:49:24.573Z,72.27
2019-01-31T08:51:53.160Z,66.70
2019-01-31T08:54:21.756Z,67.70
2019-01-31T08:56:50.368Z,67.00
2019-01-31T08:59:18.953Z,67.37
2019-01-31T09:01:47.524Z,66.13
2019-01-31T09:04:16.069Z,62.67
2019-01-31T09:06:44.649Z,61.53
2019-01-31T09:09:13.814Z,62.67
2019-01-31T09:11:42.466Z,63.37
2019-01-31T09:14:11.082Z,67.50
2019-01-31T09:16:39.651Z,66.53
2019-01-31T09:19:08.292Z,70.27
2019-01-31T09:21:48.159Z,69.53
2019-01-31T09:24:51.087Z,64.93
2019-01-31T09:27:41.650Z,61.77
2019-01-31T09:30:32.689Z,62.77
2019-01-31T09:33:20.471Z,57.93
2019-01-31T09:36:06.748Z,55.57
2019-01-31T09:38:52.954Z,54.00
2019-01-31T09:41:40.714Z,52.93
2019-01-31T09:44:40.315Z,54.33
2019-01-31T09:47:26.586Z,51.07
2019-01-31T09:50:08.226Z,51.33
2019-01-31T09:52:54.577Z,50.73
2019-01-31T09:55:28.513Z,48.93
2019-01-31T09:58:06.986Z,48.73
2019-01-31T10:01:09.785Z,48.87
2019-01-31T10:03:56.818Z,44.60
2019-01-31T10:06:56.674Z,43.67
2019-01-31T10:09:36.907Z,41.27
2019-01-31T10:12:23.608Z,41.03
2019-01-31T10:15:11.484Z,40.57
2019-01-31T10:17:57.490Z,39.17
2019-01-31T10:20:51.318Z,36.27
2019-01-31T10:23:39.150Z,33.43
2019-01-31T10:26:12.779Z,35.57
2019-01-31T10:29:01.927Z,34.47
2019-01-31T10:31:54.611Z,34.27
2019-01-31T10:34:31.198Z,32.17
2019-01-31T10:37:15.738Z,32.17
2019-01-31T10:39:50.588Z,34.43
2019-01-31T10:42:49.365Z,32.33
2019-01-31T10:45:21.370Z,33.50
2019-01-31T10:47:55.187Z,34.77
2019-01-31T10:50:32.107Z,35.80
2019-01-31T10:53:19.873Z,39.83
2019-01-31T10:56:07.646Z,37.97
2019-01-31T10:59:04.981Z,41.20
2019-01-31T11:02:04.891Z,38.20
2019-01-31T11:05:12.165Z,35.33
2019-01-31T11:07:47.170Z,33.23
2019-01-31T11:10:33.057Z,32.03
2019-01-31T11:13:35.569Z,30.60
2019-01-31T11:16:20.433Z,30.50
2019-01-31T11:19:05.497Z,32.50
2019-01-31T11:22:00.431Z,32.43
2019-01-31T11:25:00.270Z,28.90
2019-01-31T11:27:36.899Z,28.37
2019-01-31T11:30:24.658Z,28.27
2019-01-31T11:33:12.407Z,29.97
2019-01-31T11:35:45.804Z,30.30
2019-01-31T11:38:42.521Z,30.63
2019-01-31T11:41:24.572Z,33.53
2019-01-31T11:44:06.904Z,32.60
2019-01-31T11:46:42.634Z,34.73
2019-01-31T11:49:20.287Z,33.17
2019-01-31T11:52:20.035Z,33.77
2019-01-31T11:55:19.556Z,33.80
2019-01-31T11:58:06.166Z,34.93
2019-01-31T12:00:34.706Z,37.03
2019-01-31T12:03:03.271Z,36.30
2019-01-31T12:05:31.841Z,37.17
2019-01-31T12:08:00.406Z,40.53
2019-01-31T12:10:28.967Z,40.57
2019-01-31T12:12:57.658Z,43.07
2019-01-31T12:15:26.214Z,43.73
2019-01-31T12:17:54.776Z,41.63
2019-01-31T12:20:23.406Z,41.47
2019-01-31T12:22:51.954Z,40.17
2019-01-31T12:25:20.628Z,43.47
2019-01-31T12:27:49.220Z,39.67
2019-01-31T12:30:19.174Z,39.60
2019-01-31T12:32:47.764Z,39.50
2019-01-31T12:35:16.353Z,41.13
2019-01-31T12:37:44.901Z,40.33
2019-01-31T12:40:14.622Z,39.60
2019-01-31T12:42:43.200Z,40.20
2019-01-31T12:45:12.912Z,39.90
2019-01-31T12:47:41.574Z,38.83
2019-01-31T12:50:11.661Z,39.17
2019-01-31T12:52:40.223Z,39.87
2019-01-31T12:55:08.815Z,41.63
2019-01-31T12:57:37.405Z,40.83
2019-01-31T13:00:08.646Z,41.10
2019-01-31T13:02:37.229Z,39.80
2019-01-31T13:05:06.135Z,35.73
2019-01-31T13:07:34.681Z,38.43
2019-01-31T13:10:03.366Z,37.17
2019-01-31T13:12:31.918Z,38.97
2019-01-31T13:15:00.482Z,39.20
2019-01-31T13:17:29.050Z,38.37
2019-01-31T13:19:58.134Z,39.60
2019-01-31T13:22:26.843Z,39.33
2019-01-31T13:24:55.496Z,37.73
2019-01-31T13:27:25.107Z,38.80
2019-01-31T13:29:53.663Z,38.93
2019-01-31T13:32:22.247Z,37.50
2019-01-31T13:34:50.798Z,36.57
2019-01-31T13:37:19.361Z,38.13
2019-01-31T13:39:47.942Z,36.73
2019-01-31T13:42:16.495Z,35.30
2019-01-31T13:44:45.066Z,36.17
2019-01-31T13:47:13.626Z,36.67
2019-01-31T13:49:42.181Z,35.03
2019-01-31T13:52:10.746Z,35.30
2019-01-31T13:54:39.316Z,35.53
2019-01-31T13:57:07.915Z,37.17
2019-01-31T13:59:36.554Z,36.40
2019-01-31T14:02:05.112Z,36.13
2019-01-31T14:04:33.674Z,35.07
2019-01-31T14:07:02.238Z,32.30
2019-01-31T14:09:30.822Z,33.17
2019-01-31T14:11:59.370Z,29.93
2019-01-31T14:14:27.993Z,30.00
2019-01-31T14:16:56.522Z,32.43
2019-01-31T14:19:25.107Z,32.07
2019-01-31T14:21:53.688Z,29.93
2019-01-31T14:24:23.614Z,28.73
2019-01-31T14:26:52.179Z,29.20
2019-01-31T14:29:20.772Z,29.13
2019-01-31T14:31:49.324Z,28.43
2019-01-31T14:34:17.913Z,26.37
2019-01-31T14:36:46.513Z,28.43
2019-01-31T14:39:15.092Z,26.57
2019-01-31T14:41:43.784Z,28.50
2019-01-31T14:44:20.103Z,28.80
2019-01-31T14:46:42.678Z,26.83
2019-01-31T14:49:11.231Z,26.60
2019-01-31T14:51:39.809Z,25.23
2019-01-31T14:54:08.363Z,25.43
2019-01-31T14:56:36.923Z,24.50
2019-01-31T14:59:05.506Z,25.37
2019-01-31T15:01:34.094Z,26.40
2019-01-31T15:04:02.666Z,27.07
2019-01-31T15:06:31.318Z,26.27
2019-01-31T15:11:30.230Z,24.60
2019-01-31T15:13:58.806Z,28.23
2019-01-31T15:16:27.370Z,30.10
2019-01-31T15:18:55.935Z,28.60
2019-01-31T15:21:24.515Z,27.50
2019-01-31T15:23:53.093Z,29.30
2019-01-31T15:26:21.715Z,29.80
2019-01-31T15:28:50.261Z,29.47
2019-01-31T15:31:18.847Z,29.13
2019-01-31T15:33:47.401Z,28.77
2019-01-31T15:36:15.974Z,29.03
2019-01-31T15:38:44.571Z,31.13
2019-01-31T15:41:13.123Z,30.40
2019-01-31T15:43:41.668Z,32.23
2019-01-31T15:46:10.234Z,30.57
2019-01-31T15:48:38.799Z,32.27
2019-01-31T15:51:07.365Z,31.30
2019-01-31T15:53:36.022Z,30.77
2019-01-31T15:56:04.614Z,32.43
2019-01-31T15:58:33.168Z,32.97
2019-01-31T16:01:01.752Z,34.17
2019-01-31T16:03:30.374Z,34.60
2019-01-31T16:05:58.919Z,34.27
2019-01-31T16:08:28.246Z,34.57
2019-01-31T16:10:56.900Z,30.50
2019-01-31T16:13:25.543Z,30.50
2019-01-31T16:15:54.176Z,30.40
2019-01-31T16:18:22.722Z,28.17
2019-01-31T16:20:51.270Z,26.53
2019-01-31T16:23:19.858Z,27.83
2019-01-31T16:25:48.406Z,27.40
2019-01-31T16:28:16.993Z,26.10
2019-01-31T16:30:49.573Z,26.30
2019-01-31T16:33:19.529Z,25.87
2019-01-31T16:35:48.483Z,25.53
2019-01-31T16:38:17.907Z,27.10
2019-01-31T16:40:46.526Z,27.77
2019-01-31T16:43:15.130Z,26.30
2019-01-31T16:45:46.251Z,30.40
2019-01-31T16:48:16.071Z,27.57
2019-01-31T16:50:44.643Z,27.10
2019-01-31T16:53:13.228Z,27.47
2019-01-31T16:55:43.030Z,27.43
2019-01-31T16:58:11.590Z,28.37
2019-01-31T17:00:40.174Z,28.23
2019-01-31T17:03:08.768Z,28.30
2019-01-31T17:05:37.425Z,27.90
2019-01-31T17:08:06.349Z,27.77
2019-01-31T17:10:34.980Z,30.93
2019-01-31T17:13:04.010Z,30.17
2019-01-31T17:15:33.561Z,30.27
2019-01-31T17:18:02.863Z,30.53
2019-01-31T17:20:35.760Z,30.90
2019-01-31T17:23:04.323Z,31.20
2019-01-31T17:25:32.918Z,30.87
2019-01-31T17:28:01.537Z,33.73
2019-01-31T17:30:30.797Z,33.03
2019-01-31T17:33:00.408Z,34.37
2019-01-31T17:35:29.150Z,35.43
2019-01-31T17:37:57.758Z,36.00
2019-01-31T17:40:27.465Z,37.13
2019-01-31T17:42:56.067Z,37.13
2019-01-31T17:45:30.506Z,36.03
2019-01-31T17:47:54.903Z,35.43
2019-01-31T17:50:23.451Z,36.20
2019-01-31T17:52:52.041Z,33.30
2019-01-31T17:55:22.170Z,34.27
2019-01-31T17:57:50.736Z,32.87
2019-01-31T18:00:28.722Z,36.60
2019-01-31T18:02:57.299Z,36.63
2019-01-31T18:05:25.846Z,35.17
2019-01-31T18:07:54.434Z,32.67
2019-01-31T18:10:22.995Z,31.60
2019-01-31T18:12:51.607Z,32.13
2019-01-31T18:15:20.195Z,31.63
2019-01-31T18:17:48.954Z,31.00
2019-01-31T18:20:17.958Z,30.53
2019-01-31T18:22:46.543Z,29.30
2019-01-31T18:25:15.219Z,32.23
2019-01-31T18:27:43.778Z,29.70
2019-01-31T18:30:16.511Z,31.33
2019-01-31T18:32:45.075Z,30.23
2019-01-31T18:35:13.627Z,31.70
2019-01-31T18:37:42.201Z,32.17
2019-01-31T18:40:12.366Z,29.17
2019-01-31T18:42:40.984Z,29.80
2019-01-31T18:45:10.856Z,31.07
2019-01-31T18:47:39.427Z,32.43
2019-01-31T18:50:09.578Z,32.10
2019-01-31T18:52:38.163Z,32.23
2019-01-31T18:55:06.810Z,34.43
2019-01-31T18:57:35.533Z,34.70
2019-01-31T19:00:05.359Z,33.30
2019-01-31T19:02:33.931Z,32.70
2019-01-31T19:05:02.506Z,31.37
2019-01-31T19:07:31.191Z,32.03
2019-01-31T19:09:59.758Z,33.67
2019-01-31T19:12:28.354Z,34.40
2019-01-31T19:14:56.986Z,34.93
2019-01-31T19:17:25.532Z,34.37
2019-01-31T19:19:54.099Z,29.97
2019-01-31T19:22:22.726Z,33.03
2019-01-31T19:24:51.285Z,32.93
2019-01-31T19:27:20.031Z,31.53
2019-01-31T19:29:48.699Z,34.20
2019-01-31T19:32:17.257Z,33.80
2019-01-31T19:34:45.800Z,33.40
2019-01-31T19:37:14.392Z,32.20
2019-01-31T19:39:42.944Z,30.70
2019-01-31T19:42:11.509Z,30.23
2019-01-31T19:44:41.873Z,29.83
2019-01-31T19:47:10.352Z,32.37
2019-01-31T19:49:39.004Z,34.73
2019-01-31T19:52:07.565Z,34.43
2019-01-31T19:54:36.119Z,36.53
2019-01-31T19:57:04.731Z,33.80
2019-01-31T19:59:33.335Z,33.97
2019-01-31T20:02:01.883Z,33.03
2019-01-31T20:04:30.470Z,33.93
2019-01-31T20:06:59.046Z,32.37
2019-01-31T20:09:28.325Z,31.83
2019-01-31T20:11:56.985Z,31.70
2019-01-31T20:14:25.620Z,32.03
2019-01-31T20:16:54.195Z,31.53
2019-01-31T20:19:22.772Z,30.87
2019-01-31T20:21:52.127Z,30.93
2019-01-31T20:24:20.801Z,30.37
2019-01-31T20:26:49.386Z,30.50
2019-01-31T20:29:17.982Z,31.40
2019-01-31T20:31:46.529Z,33.03
2019-01-31T20:34:15.106Z,30.43
2019-01-31T20:36:43.671Z,31.10
2019-01-31T20:39:12.323Z,32.67
2019-01-31T20:41:40.924Z,30.30
2019-01-31T20:44:09.511Z,30.57
2019-01-31T20:46:40.094Z,31.43
2019-01-31T20:49:08.378Z,30.60
2019-01-31T20:51:36.959Z,30.53
2019-01-31T20:54:05.506Z,32.07
2019-01-31T20:56:34.115Z,32.43
2019-01-31T20:59:02.687Z,33.03
2019-01-31T21:01:31.247Z,38.00
2019-01-31T21:03:59.826Z,37.20
2019-01-31T21:06:28.396Z,37.50
2019-01-31T21:09:16.256Z,40.73
2019-01-31T21:11:44.834Z,38.60
2019-01-31T21:14:13.413Z,39.17
2019-01-31T21:16:51.413Z,39.63
2019-01-31T21:19:12.282Z,41.20
2019-01-31T21:21:40.827Z,39.47
2019-01-31T21:24:09.445Z,38.73
2019-01-31T21:26:38.012Z,39.67
2019-01-31T21:29:06.581Z,39.00
2019-01-31T21:31:35.192Z,39.87
2019-01-31T21:34:03.754Z,41.63
2019-01-31T21:36:32.360Z,40.67
2019-01-31T21:39:00.935Z,43.27
2019-01-31T21:41:29.521Z,43.87
2019-01-31T21:43:58.114Z,44.63
2019-01-31T21:46:26.664Z,43.77
2019-01-31T21:48:55.227Z,42.53
2019-01-31T21:51:23.822Z,45.23
2019-01-31T21:53:52.372Z,47.23
2019-01-31T21:56:20.928Z,47.73
2019-01-31T21:58:49.540Z,46.20
2019-01-31T22:01:18.088Z,45.03
2019-01-31T22:03:46.648Z,47.23
2019-01-31T22:06:22.347Z,45.67
2019-01-31T22:08:45.522Z,45.23
2019-01-31T22:11:14.111Z,45.00
2019-01-31T22:13:42.754Z,45.60
2019-01-31T22:16:11.307Z,46.23
2019-01-31T22:18:39.872Z,47.23
2019-01-31T22:21:08.466Z,44.70
2019-01-31T22:23:37.029Z,45.17
2019-01-31T22:26:05.630Z,43.17
2019-01-31T22:28:34.229Z,43.57
2019-01-31T22:31:02.794Z,44.43
2019-01-31T22:33:31.359Z,45.00
2019-01-31T22:35:59.928Z,45.60
2019-01-31T22:38:28.424Z,43.40
2019-01-31T22:40:57.008Z,43.80
2019-01-31T22:43:25.609Z,43.77
2019-01-31T22:45:54.187Z,42.20
2019-01-31T22:48:22.743Z,41.33
2019-01-31T22:50:51.322Z,42.27
2019-01-31T22:53:19.898Z,42.93
2019-01-31T22:55:48.469Z,42.03
2019-01-31T22:58:17.059Z,42.50
2019-01-31T23:01:06.894Z,40.87
2019-01-31T23:03:35.651Z,43.77
2019-01-31T23:06:05.048Z,41.23
2019-01-31T23:08:33.631Z,41.87
2019-01-31T23:11:02.225Z,42.93
2019-01-31T23:13:30.810Z,39.70
2019-01-31T23:15:59.406Z,42.60
2019-01-31T23:18:28.125Z,40.13
2019-01-31T23:20:56.704Z,40.90
2019-01-31T23:23:25.255Z,41.03
2019-01-31T23:25:53.838Z,42.67
2019-01-31T23:28:22.414Z,41.00
2019-01-31T23:30:50.978Z,41.70
2019-01-31T23:33:19.593Z,39.97
2019-01-31T23:35:48.159Z,38.00
2019-01-31T23:38:16.723Z,39.70
2019-01-31T23:40:45.297Z,39.67
2019-01-31T23:43:13.843Z,38.27
2019-01-31T23:45:42.403Z,37.87
2019-01-31T23:48:10.978Z,37.00
2019-01-31T23:50:39.543Z,38.47
2019-01-31T23:53:08.102Z,37.77
2019-01-31T23:55:36.670Z,36.47
2019-01-31T23:58:05.222Z,35.67
